sensor_id;sensor_type;location;lat;lon;timestamp;P1;durP1;ratioP1;P2;durP2;ratioP2
71610;SDS011;59459;51.172;6.682;2023-05-10T00:01:43;12.67;;;5.20;;
71610;SDS011;59459;51.172;6.682;2023-05-10T00:04:08;11.80;;;4.80;;
71610;SDS011;59459;51.172;6.682;2023-05-10T00:06:33;14.53;;;5.40;;
71610;SDS011;59459;51.172;6.682;2023-05-10T00:08:59;14.13;;;5.97;;
71610;SDS011;59459;51.172;6.682;2023-05-10T00:11:24;12.70;;;4.83;;
71610;SDS011;59459;51.172;6.682;2023-05-10T00:13:49;13.30;;;5.40;;
71610;SDS011;59459;51.172;6.682;2023-05-10T00:16:14;16.53;;;6.03;;
71610;SDS011;59459;51.172;6.682;2023-05-10T00:18:40;13.60;;;5.20;;
71610;SDS011;59459;51.172;6.682;2023-05-10T00:21:05;13.33;;;5.17;;
71610;SDS011;59459;51.172;6.682;2023-05-10T00:23:30;12.00;;;4.33;;
71610;SDS011;59459;51.172;6.682;2023-05-10T00:25:56;13.20;;;5.47;;
71610;SDS011;59459;51.172;6.682;2023-05-10T00:28:21;14.23;;;5.60;;
71610;SDS011;59459;51.172;6.682;2023-05-10T00:30:46;12.43;;;5.20;;
71610;SDS011;59459;51.172;6.682;2023-05-10T00:33:11;13.67;;;5.33;;
71610;SDS011;59459;51.172;6.682;2023-05-10T00:35:37;12.15;;;3.83;;
71610;SDS011;59459;51.172;6.682;2023-05-10T00:38:02;11.50;;;3.97;;
71610;SDS011;59459;51.172;6.682;2023-05-10T00:40:28;11.03;;;4.53;;
71610;SDS011;59459;51.172;6.682;2023-05-10T00:42:53;11.73;;;4.50;;
71610;SDS011;59459;51.172;6.682;2023-05-10T00:45:19;13.33;;;5.20;;
71610;SDS011;59459;51.172;6.682;2023-05-10T00:47:44;12.70;;;4.87;;
71610;SDS011;59459;51.172;6.682;2023-05-10T00:50:09;13.90;;;5.27;;
71610;SDS011;59459;51.172;6.682;2023-05-10T00:52:35;14.63;;;5.13;;
71610;SDS011;59459;51.172;6.682;2023-05-10T00:55:02;12.63;;;4.60;;
71610;SDS011;59459;51.172;6.682;2023-05-10T00:57:39;11.60;;;5.03;;
71610;SDS011;59459;51.172;6.682;2023-05-10T01:00:16;14.85;;;5.65;;
71610;SDS011;59459;51.172;6.682;2023-05-10T01:05:36;11.85;;;4.85;;
71610;SDS011;59459;51.172;6.682;2023-05-10T01:08:35;14.07;;;5.03;;
71610;SDS011;59459;51.172;6.682;2023-05-10T01:11:12;12.98;;;4.38;;
71610;SDS011;59459;51.172;6.682;2023-05-10T01:13:55;13.75;;;4.65;;
71610;SDS011;59459;51.172;6.682;2023-05-10T01:16:21;13.23;;;5.00;;
71610;SDS011;59459;51.172;6.682;2023-05-10T01:18:47;11.10;;;4.55;;
71610;SDS011;59459;51.172;6.682;2023-05-10T01:23:43;13.10;;;5.47;;
71610;SDS011;59459;51.172;6.682;2023-05-10T01:34:12;9.23;;;3.70;;
71610;SDS011;59459;51.172;6.682;2023-05-10T01:37:01;9.27;;;3.60;;
71610;SDS011;59459;51.172;6.682;2023-05-10T01:39:45;8.48;;;3.00;;
71610;SDS011;59459;51.172;6.682;2023-05-10T01:42:16;8.60;;;3.00;;
71610;SDS011;59459;51.172;6.682;2023-05-10T01:44:45;7.43;;;2.90;;
71610;SDS011;59459;51.172;6.682;2023-05-10T01:50:04;6.40;;;2.60;;
71610;SDS011;59459;51.172;6.682;2023-05-10T01:52:32;7.03;;;2.63;;
71610;SDS011;59459;51.172;6.682;2023-05-10T01:55:04;7.80;;;2.20;;
71610;SDS011;59459;51.172;6.682;2023-05-10T01:57:33;6.38;;;2.38;;
71610;SDS011;59459;51.172;6.682;2023-05-10T02:00:04;7.28;;;2.60;;
71610;SDS011;59459;51.172;6.682;2023-05-10T02:02:35;8.60;;;2.67;;
71610;SDS011;59459;51.172;6.682;2023-05-10T02:05:06;5.75;;;2.30;;
71610;SDS011;59459;51.172;6.682;2023-05-10T02:07:37;6.93;;;2.00;;
71610;SDS011;59459;51.172;6.682;2023-05-10T02:10:08;6.10;;;2.45;;
71610;SDS011;59459;51.172;6.682;2023-05-10T02:12:49;5.75;;;2.47;;
71610;SDS011;59459;51.172;6.682;2023-05-10T02:15:32;7.38;;;2.75;;
71610;SDS011;59459;51.172;6.682;2023-05-10T02:17:58;7.40;;;2.25;;
71610;SDS011;59459;51.172;6.682;2023-05-10T02:20:38;7.10;;;2.70;;
71610;SDS011;59459;51.172;6.682;2023-05-10T02:23:06;6.35;;;2.53;;
71610;SDS011;59459;51.172;6.682;2023-05-10T02:25:39;9.30;;;2.70;;
71610;SDS011;59459;51.172;6.682;2023-05-10T02:28:05;9.50;;;2.75;;
71610;SDS011;59459;51.172;6.682;2023-05-10T02:30:32;8.60;;;3.00;;
71610;SDS011;59459;51.172;6.682;2023-05-10T02:35:50;6.90;;;2.88;;
71610;SDS011;59459;51.172;6.682;2023-05-10T02:38:38;7.40;;;2.55;;
71610;SDS011;59459;51.172;6.682;2023-05-10T02:41:33;9.32;;;3.28;;
71610;SDS011;59459;51.172;6.682;2023-05-10T02:44:30;8.73;;;2.90;;
71610;SDS011;59459;51.172;6.682;2023-05-10T02:47:24;8.23;;;3.13;;
71610;SDS011;59459;51.172;6.682;2023-05-10T02:50:07;8.25;;;3.25;;
71610;SDS011;59459;51.172;6.682;2023-05-10T02:52:43;8.65;;;2.90;;
71610;SDS011;59459;51.172;6.682;2023-05-10T02:55:36;8.73;;;3.33;;
71610;SDS011;59459;51.172;6.682;2023-05-10T02:58:22;9.75;;;3.00;;
71610;SDS011;59459;51.172;6.682;2023-05-10T03:00:57;6.37;;;2.90;;
71610;SDS011;59459;51.172;6.682;2023-05-10T03:03:31;8.80;;;3.55;;
71610;SDS011;59459;51.172;6.682;2023-05-10T03:06:20;9.55;;;3.55;;
71610;SDS011;59459;51.172;6.682;2023-05-10T03:09:05;9.93;;;3.35;;
71610;SDS011;59459;51.172;6.682;2023-05-10T03:17:40;10.05;;;3.45;;
71610;SDS011;59459;51.172;6.682;2023-05-10T03:20:16;10.38;;;3.80;;
71610;SDS011;59459;51.172;6.682;2023-05-10T03:22:50;10.00;;;4.80;;
71610;SDS011;59459;51.172;6.682;2023-05-10T03:25:45;10.82;;;4.00;;
71610;SDS011;59459;51.172;6.682;2023-05-10T03:28:12;11.07;;;3.87;;
71610;SDS011;59459;51.172;6.682;2023-05-10T03:30:44;11.23;;;4.32;;
71610;SDS011;59459;51.172;6.682;2023-05-10T03:33:19;9.75;;;3.95;;
71610;SDS011;59459;51.172;6.682;2023-05-10T03:35:55;10.52;;;4.03;;
71610;SDS011;59459;51.172;6.682;2023-05-10T03:38:29;9.90;;;3.90;;
71610;SDS011;59459;51.172;6.682;2023-05-10T03:40:54;11.37;;;4.60;;
71610;SDS011;59459;51.172;6.682;2023-05-10T03:43:22;14.18;;;5.78;;
71610;SDS011;59459;51.172;6.682;2023-05-10T03:46:11;12.77;;;4.00;;
71610;SDS011;59459;51.172;6.682;2023-05-10T03:48:42;13.52;;;4.63;;
71610;SDS011;59459;51.172;6.682;2023-05-10T03:51:10;12.80;;;5.25;;
71610;SDS011;59459;51.172;6.682;2023-05-10T03:53:36;14.13;;;5.93;;
71610;SDS011;59459;51.172;6.682;2023-05-10T03:56:03;17.17;;;6.30;;
71610;SDS011;59459;51.172;6.682;2023-05-10T03:58:34;15.30;;;5.78;;
71610;SDS011;59459;51.172;6.682;2023-05-10T04:01:15;14.43;;;5.45;;
71610;SDS011;59459;51.172;6.682;2023-05-10T04:03:46;16.83;;;5.63;;
71610;SDS011;59459;51.172;6.682;2023-05-10T04:06:24;18.02;;;6.88;;
71610;SDS011;59459;51.172;6.682;2023-05-10T04:09:16;16.93;;;6.50;;
71610;SDS011;59459;51.172;6.682;2023-05-10T04:11:43;17.13;;;6.22;;
71610;SDS011;59459;51.172;6.682;2023-05-10T04:14:11;21.73;;;8.00;;
71610;SDS011;59459;51.172;6.682;2023-05-10T04:16:45;20.83;;;8.02;;
71610;SDS011;59459;51.172;6.682;2023-05-10T04:19:10;19.85;;;8.52;;
71610;SDS011;59459;51.172;6.682;2023-05-10T04:21:45;21.50;;;8.05;;
71610;SDS011;59459;51.172;6.682;2023-05-10T04:24:10;18.83;;;7.43;;
71610;SDS011;59459;51.172;6.682;2023-05-10T04:26:43;18.63;;;8.60;;
71610;SDS011;59459;51.172;6.682;2023-05-10T04:29:11;21.27;;;8.15;;
71610;SDS011;59459;51.172;6.682;2023-05-10T04:31:39;22.07;;;7.60;;
71610;SDS011;59459;51.172;6.682;2023-05-10T04:34:12;20.00;;;8.10;;
71610;SDS011;59459;51.172;6.682;2023-05-10T04:36:37;23.48;;;8.65;;
71610;SDS011;59459;51.172;6.682;2023-05-10T04:39:05;19.93;;;8.57;;
71610;SDS011;59459;51.172;6.682;2023-05-10T04:41:30;22.10;;;8.93;;
71610;SDS011;59459;51.172;6.682;2023-05-10T04:43:56;23.67;;;8.70;;
71610;SDS011;59459;51.172;6.682;2023-05-10T04:46:33;23.95;;;9.52;;
71610;SDS011;59459;51.172;6.682;2023-05-10T04:49:01;21.60;;;9.00;;
71610;SDS011;59459;51.172;6.682;2023-05-10T04:51:26;20.83;;;9.47;;
71610;SDS011;59459;51.172;6.682;2023-05-10T04:53:51;21.27;;;8.80;;
71610;SDS011;59459;51.172;6.682;2023-05-10T04:56:17;22.67;;;9.17;;
71610;SDS011;59459;51.172;6.682;2023-05-10T04:58:44;21.23;;;8.88;;
71610;SDS011;59459;51.172;6.682;2023-05-10T05:01:15;18.85;;;8.15;;
71610;SDS011;59459;51.172;6.682;2023-05-10T05:03:47;21.20;;;9.83;;
71610;SDS011;59459;51.172;6.682;2023-05-10T05:06:18;17.92;;;8.43;;
71610;SDS011;59459;51.172;6.682;2023-05-10T05:08:46;19.90;;;7.72;;
71610;SDS011;59459;51.172;6.682;2023-05-10T05:11:14;19.75;;;8.30;;
71610;SDS011;59459;51.172;6.682;2023-05-10T05:13:39;16.60;;;7.17;;
71610;SDS011;59459;51.172;6.682;2023-05-10T05:16:04;16.87;;;7.87;;
71610;SDS011;59459;51.172;6.682;2023-05-10T05:18:30;18.33;;;7.50;;
71610;SDS011;59459;51.172;6.682;2023-05-10T05:20:55;16.17;;;6.27;;
71610;SDS011;59459;51.172;6.682;2023-05-10T05:23:20;15.20;;;6.27;;
71610;SDS011;59459;51.172;6.682;2023-05-10T05:25:49;14.10;;;5.65;;
71610;SDS011;59459;51.172;6.682;2023-05-10T05:28:14;13.57;;;6.17;;
71610;SDS011;59459;51.172;6.682;2023-05-10T05:30:39;18.90;;;7.53;;
71610;SDS011;59459;51.172;6.682;2023-05-10T05:33:05;14.07;;;6.00;;
71610;SDS011;59459;51.172;6.682;2023-05-10T05:35:30;15.87;;;6.10;;
71610;SDS011;59459;51.172;6.682;2023-05-10T05:37:55;16.73;;;6.67;;
71610;SDS011;59459;51.172;6.682;2023-05-10T05:40:20;16.80;;;7.43;;
71610;SDS011;59459;51.172;6.682;2023-05-10T05:42:46;16.97;;;6.73;;
71610;SDS011;59459;51.172;6.682;2023-05-10T05:45:11;18.63;;;7.00;;
71610;SDS011;59459;51.172;6.682;2023-05-10T05:47:38;14.70;;;7.03;;
71610;SDS011;59459;51.172;6.682;2023-05-10T05:50:03;15.52;;;6.43;;
71610;SDS011;59459;51.172;6.682;2023-05-10T05:52:28;17.47;;;6.77;;
71610;SDS011;59459;51.172;6.682;2023-05-10T05:54:55;14.02;;;6.40;;
71610;SDS011;59459;51.172;6.682;2023-05-10T05:57:20;16.63;;;7.53;;
71610;SDS011;59459;51.172;6.682;2023-05-10T05:59:45;21.50;;;7.50;;
71610;SDS011;59459;51.172;6.682;2023-05-10T06:02:10;18.13;;;7.77;;
71610;SDS011;59459;51.172;6.682;2023-05-10T06:04:36;16.07;;;6.77;;
71610;SDS011;59459;51.172;6.682;2023-05-10T06:07:01;15.93;;;7.03;;
71610;SDS011;59459;51.172;6.682;2023-05-10T06:09:26;17.37;;;7.17;;
71610;SDS011;59459;51.172;6.682;2023-05-10T06:11:51;17.80;;;6.87;;
71610;SDS011;59459;51.172;6.682;2023-05-10T06:14:16;18.90;;;6.97;;
71610;SDS011;59459;51.172;6.682;2023-05-10T06:16:42;17.13;;;7.80;;
71610;SDS011;59459;51.172;6.682;2023-05-10T06:19:07;17.37;;;7.50;;
71610;SDS011;59459;51.172;6.682;2023-05-10T06:21:32;17.97;;;7.07;;
71610;SDS011;59459;51.172;6.682;2023-05-10T06:23:57;18.67;;;7.17;;
71610;SDS011;59459;51.172;6.682;2023-05-10T06:26:23;18.43;;;6.97;;
71610;SDS011;59459;51.172;6.682;2023-05-10T06:28:48;16.43;;;7.73;;
71610;SDS011;59459;51.172;6.682;2023-05-10T06:31:13;16.63;;;7.00;;
71610;SDS011;59459;51.172;6.682;2023-05-10T06:33:38;18.10;;;6.77;;
71610;SDS011;59459;51.172;6.682;2023-05-10T06:36:04;16.80;;;6.60;;
71610;SDS011;59459;51.172;6.682;2023-05-10T06:38:29;16.93;;;6.87;;
71610;SDS011;59459;51.172;6.682;2023-05-10T06:40:55;17.70;;;6.70;;
71610;SDS011;59459;51.172;6.682;2023-05-10T06:43:20;19.00;;;6.73;;
71610;SDS011;59459;51.172;6.682;2023-05-10T06:45:45;19.45;;;7.57;;
71610;SDS011;59459;51.172;6.682;2023-05-10T06:48:11;18.73;;;7.80;;
71610;SDS011;59459;51.172;6.682;2023-05-10T06:50:36;19.33;;;7.33;;
71610;SDS011;59459;51.172;6.682;2023-05-10T06:53:01;20.87;;;7.50;;
71610;SDS011;59459;51.172;6.682;2023-05-10T06:55:26;18.23;;;7.10;;
71610;SDS011;59459;51.172;6.682;2023-05-10T06:57:52;17.87;;;6.90;;
71610;SDS011;59459;51.172;6.682;2023-05-10T07:00:18;24.85;;;7.57;;
71610;SDS011;59459;51.172;6.682;2023-05-10T07:02:43;19.50;;;6.97;;
71610;SDS011;59459;51.172;6.682;2023-05-10T07:05:08;20.60;;;8.27;;
71610;SDS011;59459;51.172;6.682;2023-05-10T07:07:34;18.53;;;6.50;;
71610;SDS011;59459;51.172;6.682;2023-05-10T07:09:59;16.38;;;6.38;;
71610;SDS011;59459;51.172;6.682;2023-05-10T07:12:25;17.43;;;6.63;;
71610;SDS011;59459;51.172;6.682;2023-05-10T07:14:50;16.50;;;6.43;;
71610;SDS011;59459;51.172;6.682;2023-05-10T07:17:15;21.23;;;6.37;;
71610;SDS011;59459;51.172;6.682;2023-05-10T07:19:41;17.67;;;6.50;;
71610;SDS011;59459;51.172;6.682;2023-05-10T07:22:06;15.73;;;6.68;;
71610;SDS011;59459;51.172;6.682;2023-05-10T07:24:32;17.63;;;6.20;;
71610;SDS011;59459;51.172;6.682;2023-05-10T07:26:58;18.00;;;6.43;;
71610;SDS011;59459;51.172;6.682;2023-05-10T07:29:23;17.40;;;6.50;;
71610;SDS011;59459;51.172;6.682;2023-05-10T07:31:48;19.40;;;6.53;;
71610;SDS011;59459;51.172;6.682;2023-05-10T07:34:13;15.43;;;6.53;;
71610;SDS011;59459;51.172;6.682;2023-05-10T07:36:38;20.73;;;8.57;;
71610;SDS011;59459;51.172;6.682;2023-05-10T07:39:04;18.90;;;7.40;;
71610;SDS011;59459;51.172;6.682;2023-05-10T07:41:29;20.83;;;7.93;;
71610;SDS011;59459;51.172;6.682;2023-05-10T07:43:55;22.47;;;8.87;;
71610;SDS011;59459;51.172;6.682;2023-05-10T07:46:20;24.33;;;9.80;;
71610;SDS011;59459;51.172;6.682;2023-05-10T07:48:45;24.00;;;9.23;;
71610;SDS011;59459;51.172;6.682;2023-05-10T07:51:11;23.53;;;8.80;;
71610;SDS011;59459;51.172;6.682;2023-05-10T07:53:36;23.10;;;9.53;;
71610;SDS011;59459;51.172;6.682;2023-05-10T07:58:44;28.07;;;11.07;;
71610;SDS011;59459;51.172;6.682;2023-05-10T08:01:09;29.30;;;10.90;;
71610;SDS011;59459;51.172;6.682;2023-05-10T08:03:34;24.60;;;9.43;;
71610;SDS011;59459;51.172;6.682;2023-05-10T08:06:00;29.87;;;10.30;;
71610;SDS011;59459;51.172;6.682;2023-05-10T08:08:25;29.57;;;11.90;;
71610;SDS011;59459;51.172;6.682;2023-05-10T08:10:50;29.90;;;10.63;;
71610;SDS011;59459;51.172;6.682;2023-05-10T08:13:16;34.90;;;12.80;;
71610;SDS011;59459;51.172;6.682;2023-05-10T08:15:41;33.50;;;11.50;;
71610;SDS011;59459;51.172;6.682;2023-05-10T08:18:06;36.90;;;13.60;;
71610;SDS011;59459;51.172;6.682;2023-05-10T08:20:54;36.65;;;12.02;;
71610;SDS011;59459;51.172;6.682;2023-05-10T08:23:25;34.08;;;12.13;;
71610;SDS011;59459;51.172;6.682;2023-05-10T08:25:51;34.90;;;12.57;;
71610;SDS011;59459;51.172;6.682;2023-05-10T08:28:19;34.77;;;13.17;;
71610;SDS011;59459;51.172;6.682;2023-05-10T08:30:50;33.53;;;12.23;;
71610;SDS011;59459;51.172;6.682;2023-05-10T08:33:41;33.05;;;12.98;;
71610;SDS011;59459;51.172;6.682;2023-05-10T08:36:09;30.60;;;11.70;;
71610;SDS011;59459;51.172;6.682;2023-05-10T08:38:40;36.03;;;11.80;;
71610;SDS011;59459;51.172;6.682;2023-05-10T08:41:13;28.75;;;10.45;;
71610;SDS011;59459;51.172;6.682;2023-05-10T08:43:46;25.92;;;10.50;;
71610;SDS011;59459;51.172;6.682;2023-05-10T08:46:31;33.50;;;11.63;;
71610;SDS011;59459;51.172;6.682;2023-05-10T08:49:06;25.83;;;9.80;;
71610;SDS011;59459;51.172;6.682;2023-05-10T08:51:40;21.35;;;9.25;;
71610;SDS011;59459;51.172;6.682;2023-05-10T08:54:11;21.88;;;9.60;;
71610;SDS011;59459;51.172;6.682;2023-05-10T08:57:01;26.98;;;9.52;;
71610;SDS011;59459;51.172;6.682;2023-05-10T08:59:30;21.85;;;7.63;;
71610;SDS011;59459;51.172;6.682;2023-05-10T09:01:58;21.20;;;8.60;;
71610;SDS011;59459;51.172;6.682;2023-05-10T09:04:29;29.60;;;9.43;;
71610;SDS011;59459;51.172;6.682;2023-05-10T09:06:57;23.60;;;8.48;;
71610;SDS011;59459;51.172;6.682;2023-05-10T09:09:26;20.87;;;8.50;;
71610;SDS011;59459;51.172;6.682;2023-05-10T09:11:54;25.95;;;8.77;;
71610;SDS011;59459;51.172;6.682;2023-05-10T09:14:20;21.83;;;7.83;;
71610;SDS011;59459;51.172;6.682;2023-05-10T09:16:50;20.80;;;8.20;;
71610;SDS011;59459;51.172;6.682;2023-05-10T09:19:36;19.42;;;7.68;;
71610;SDS011;59459;51.172;6.682;2023-05-10T09:22:21;23.65;;;8.48;;
71610;SDS011;59459;51.172;6.682;2023-05-10T09:24:47;20.48;;;7.72;;
71610;SDS011;59459;51.172;6.682;2023-05-10T09:30:06;19.03;;;7.60;;
71610;SDS011;59459;51.172;6.682;2023-05-10T09:32:48;18.58;;;6.53;;
71610;SDS011;59459;51.172;6.682;2023-05-10T09:35:16;19.40;;;8.25;;
71610;SDS011;59459;51.172;6.682;2023-05-10T09:37:44;20.48;;;7.90;;
71610;SDS011;59459;51.172;6.682;2023-05-10T09:40:33;20.20;;;8.05;;
71610;SDS011;59459;51.172;6.682;2023-05-10T09:45:27;19.35;;;7.20;;
71610;SDS011;59459;51.172;6.682;2023-05-10T09:47:57;21.27;;;8.38;;
71610;SDS011;59459;51.172;6.682;2023-05-10T09:50:34;20.85;;;8.10;;
71610;SDS011;59459;51.172;6.682;2023-05-10T09:53:00;18.95;;;7.45;;
71610;SDS011;59459;51.172;6.682;2023-05-10T09:58:00;18.33;;;7.75;;
71610;SDS011;59459;51.172;6.682;2023-05-10T10:00:41;16.83;;;6.82;;
71610;SDS011;59459;51.172;6.682;2023-05-10T10:03:14;18.30;;;7.78;;
71610;SDS011;59459;51.172;6.682;2023-05-10T10:08:54;17.37;;;7.50;;
71610;SDS011;59459;51.172;6.682;2023-05-10T10:11:22;15.48;;;6.55;;
71610;SDS011;59459;51.172;6.682;2023-05-10T10:13:51;19.38;;;7.82;;
71610;SDS011;59459;51.172;6.682;2023-05-10T10:16:19;17.05;;;7.85;;
71610;SDS011;59459;51.172;6.682;2023-05-10T10:18:48;16.80;;;7.10;;
71610;SDS011;59459;51.172;6.682;2023-05-10T10:21:17;15.80;;;7.50;;
71610;SDS011;59459;51.172;6.682;2023-05-10T10:24:05;18.48;;;7.93;;
71610;SDS011;59459;51.172;6.682;2023-05-10T10:26:39;16.08;;;6.85;;
71610;SDS011;59459;51.172;6.682;2023-05-10T10:34:43;16.00;;;6.60;;
71610;SDS011;59459;51.172;6.682;2023-05-10T10:37:37;17.33;;;7.72;;
71610;SDS011;59459;51.172;6.682;2023-05-10T10:40:27;16.23;;;6.85;;
71610;SDS011;59459;51.172;6.682;2023-05-10T10:46:27;18.73;;;7.57;;
71610;SDS011;59459;51.172;6.682;2023-05-10T10:51:39;18.23;;;7.38;;
71610;SDS011;59459;51.172;6.682;2023-05-10T10:54:10;15.18;;;6.32;;
71610;SDS011;59459;51.172;6.682;2023-05-10T10:56:38;18.40;;;7.00;;
71610;SDS011;59459;51.172;6.682;2023-05-10T10:59:27;18.97;;;7.53;;
71610;SDS011;59459;51.172;6.682;2023-05-10T11:01:53;16.90;;;7.13;;
71610;SDS011;59459;51.172;6.682;2023-05-10T11:04:18;16.10;;;6.83;;
71610;SDS011;59459;51.172;6.682;2023-05-10T11:06:47;17.63;;;7.05;;
71610;SDS011;59459;51.172;6.682;2023-05-10T11:09:15;21.38;;;8.00;;
71610;SDS011;59459;51.172;6.682;2023-05-10T11:11:52;18.13;;;7.57;;
71610;SDS011;59459;51.172;6.682;2023-05-10T11:14:22;17.60;;;6.93;;
71610;SDS011;59459;51.172;6.682;2023-05-10T11:16:48;18.25;;;7.55;;
71610;SDS011;59459;51.172;6.682;2023-05-10T11:19:16;17.77;;;6.85;;
71610;SDS011;59459;51.172;6.682;2023-05-10T11:21:50;18.88;;;8.45;;
71610;SDS011;59459;51.172;6.682;2023-05-10T11:24:20;17.17;;;7.50;;
71610;SDS011;59459;51.172;6.682;2023-05-10T11:26:54;19.03;;;8.07;;
71610;SDS011;59459;51.172;6.682;2023-05-10T11:29:21;19.80;;;8.13;;
71610;SDS011;59459;51.172;6.682;2023-05-10T11:31:49;16.13;;;7.33;;
71610;SDS011;59459;51.172;6.682;2023-05-10T11:36:55;16.63;;;7.47;;
71610;SDS011;59459;51.172;6.682;2023-05-10T11:39:21;16.70;;;6.88;;
71610;SDS011;59459;51.172;6.682;2023-05-10T11:41:49;16.97;;;7.23;;
71610;SDS011;59459;51.172;6.682;2023-05-10T11:44:15;16.67;;;7.32;;
71610;SDS011;59459;51.172;6.682;2023-05-10T11:46:43;17.10;;;7.63;;
71610;SDS011;59459;51.172;6.682;2023-05-10T11:49:08;17.05;;;7.43;;
71610;SDS011;59459;51.172;6.682;2023-05-10T11:51:34;18.70;;;7.43;;
71610;SDS011;59459;51.172;6.682;2023-05-10T11:54:07;17.90;;;7.38;;
71610;SDS011;59459;51.172;6.682;2023-05-10T11:56:42;17.08;;;7.90;;
71610;SDS011;59459;51.172;6.682;2023-05-10T11:59:07;17.15;;;7.03;;
71610;SDS011;59459;51.172;6.682;2023-05-10T12:01:33;18.43;;;8.00;;
71610;SDS011;59459;51.172;6.682;2023-05-10T12:03:58;18.17;;;8.00;;
71610;SDS011;59459;51.172;6.682;2023-05-10T12:06:29;21.10;;;8.23;;
71610;SDS011;59459;51.172;6.682;2023-05-10T12:08:56;21.35;;;8.13;;
71610;SDS011;59459;51.172;6.682;2023-05-10T12:11:23;19.27;;;7.57;;
71610;SDS011;59459;51.172;6.682;2023-05-10T12:13:53;23.17;;;10.13;;
71610;SDS011;59459;51.172;6.682;2023-05-10T12:16:24;21.45;;;9.57;;
71610;SDS011;59459;51.172;6.682;2023-05-10T12:18:53;22.83;;;10.00;;
71610;SDS011;59459;51.172;6.682;2023-05-10T12:21:29;26.33;;;10.23;;
71610;SDS011;59459;51.172;6.682;2023-05-10T12:24:03;20.63;;;9.83;;
71610;SDS011;59459;51.172;6.682;2023-05-10T12:26:37;22.70;;;9.32;;
71610;SDS011;59459;51.172;6.682;2023-05-10T12:29:16;25.17;;;10.10;;
71610;SDS011;59459;51.172;6.682;2023-05-10T12:31:51;19.75;;;9.15;;
71610;SDS011;59459;51.172;6.682;2023-05-10T12:34:25;20.45;;;9.07;;
71610;SDS011;59459;51.172;6.682;2023-05-10T12:37:03;20.85;;;8.63;;
71610;SDS011;59459;51.172;6.682;2023-05-10T12:39:41;19.43;;;8.07;;
71610;SDS011;59459;51.172;6.682;2023-05-10T12:42:07;22.52;;;8.82;;
71610;SDS011;59459;51.172;6.682;2023-05-10T12:44:40;18.97;;;8.13;;
71610;SDS011;59459;51.172;6.682;2023-05-10T12:47:05;18.33;;;8.55;;
71610;SDS011;59459;51.172;6.682;2023-05-10T12:49:31;19.27;;;8.40;;
71610;SDS011;59459;51.172;6.682;2023-05-10T12:52:01;17.73;;;8.53;;
71610;SDS011;59459;51.172;6.682;2023-05-10T12:54:29;21.55;;;8.73;;
71610;SDS011;59459;51.172;6.682;2023-05-10T12:57:05;18.40;;;7.63;;
71610;SDS011;59459;51.172;6.682;2023-05-10T12:59:33;20.90;;;7.88;;
71610;SDS011;59459;51.172;6.682;2023-05-10T13:02:01;19.05;;;7.93;;
71610;SDS011;59459;51.172;6.682;2023-05-10T13:04:29;18.23;;;7.30;;
71610;SDS011;59459;51.172;6.682;2023-05-10T13:07:07;15.90;;;7.38;;
71610;SDS011;59459;51.172;6.682;2023-05-10T13:09:35;18.67;;;7.38;;
71610;SDS011;59459;51.172;6.682;2023-05-10T13:12:04;16.30;;;6.80;;
71610;SDS011;59459;51.172;6.682;2023-05-10T13:14:29;13.95;;;5.97;;
71610;SDS011;59459;51.172;6.682;2023-05-10T13:16:57;14.10;;;6.00;;
71610;SDS011;59459;51.172;6.682;2023-05-10T13:19:49;14.63;;;6.22;;
71610;SDS011;59459;51.172;6.682;2023-05-10T13:22:17;15.52;;;6.43;;
71610;SDS011;59459;51.172;6.682;2023-05-10T13:24:54;15.95;;;6.15;;
71610;SDS011;59459;51.172;6.682;2023-05-10T13:27:22;18.10;;;6.80;;
71610;SDS011;59459;51.172;6.682;2023-05-10T13:29:50;14.57;;;6.43;;
71610;SDS011;59459;51.172;6.682;2023-05-10T13:32:29;17.00;;;6.53;;
71610;SDS011;59459;51.172;6.682;2023-05-10T13:34:54;16.20;;;6.80;;
71610;SDS011;59459;51.172;6.682;2023-05-10T13:37:24;18.10;;;6.88;;
71610;SDS011;59459;51.172;6.682;2023-05-10T13:39:50;17.88;;;6.93;;
71610;SDS011;59459;51.172;6.682;2023-05-10T13:42:15;15.17;;;7.00;;
71610;SDS011;59459;51.172;6.682;2023-05-10T13:44:42;14.40;;;5.93;;
71610;SDS011;59459;51.172;6.682;2023-05-10T13:47:08;14.30;;;6.13;;
71610;SDS011;59459;51.172;6.682;2023-05-10T13:49:33;13.03;;;5.77;;
71610;SDS011;59459;51.172;6.682;2023-05-10T13:52:01;14.32;;;5.50;;
71610;SDS011;59459;51.172;6.682;2023-05-10T13:54:33;15.48;;;6.60;;
71610;SDS011;59459;51.172;6.682;2023-05-10T13:56:59;13.83;;;5.13;;
71610;SDS011;59459;51.172;6.682;2023-05-10T13:59:30;10.73;;;4.85;;
71610;SDS011;59459;51.172;6.682;2023-05-10T14:01:59;12.20;;;4.35;;
71610;SDS011;59459;51.172;6.682;2023-05-10T14:04:24;10.82;;;4.72;;
71610;SDS011;59459;51.172;6.682;2023-05-10T14:06:58;11.07;;;4.60;;
71610;SDS011;59459;51.172;6.682;2023-05-10T14:09:23;10.77;;;4.82;;
71610;SDS011;59459;51.172;6.682;2023-05-10T14:11:52;10.23;;;4.40;;
71610;SDS011;59459;51.172;6.682;2023-05-10T14:14:17;12.52;;;4.60;;
71610;SDS011;59459;51.172;6.682;2023-05-10T14:16:48;10.73;;;4.43;;
71610;SDS011;59459;51.172;6.682;2023-05-10T14:19:13;11.60;;;4.85;;
71610;SDS011;59459;51.172;6.682;2023-05-10T14:21:39;11.10;;;4.60;;
71610;SDS011;59459;51.172;6.682;2023-05-10T14:24:04;12.32;;;4.40;;
71610;SDS011;59459;51.172;6.682;2023-05-10T14:26:34;12.38;;;5.00;;
71610;SDS011;59459;51.172;6.682;2023-05-10T14:28:59;11.57;;;4.30;;
71610;SDS011;59459;51.172;6.682;2023-05-10T14:31:25;11.60;;;4.50;;
71610;SDS011;59459;51.172;6.682;2023-05-10T14:33:50;11.03;;;4.40;;
71610;SDS011;59459;51.172;6.682;2023-05-10T14:36:16;10.50;;;3.70;;
71610;SDS011;59459;51.172;6.682;2023-05-10T14:38:42;10.02;;;4.18;;
71610;SDS011;59459;51.172;6.682;2023-05-10T14:41:07;10.53;;;4.20;;
71610;SDS011;59459;51.172;6.682;2023-05-10T14:43:33;9.75;;;4.13;;
71610;SDS011;59459;51.172;6.682;2023-05-10T14:45:58;8.67;;;3.77;;
71610;SDS011;59459;51.172;6.682;2023-05-10T14:48:28;9.13;;;3.38;;
71610;SDS011;59459;51.172;6.682;2023-05-10T14:50:53;10.23;;;3.43;;
71610;SDS011;59459;51.172;6.682;2023-05-10T14:53:18;8.63;;;3.40;;
71610;SDS011;59459;51.172;6.682;2023-05-10T14:55:47;8.63;;;3.70;;
71610;SDS011;59459;51.172;6.682;2023-05-10T14:58:18;9.07;;;3.95;;
71610;SDS011;59459;51.172;6.682;2023-05-10T15:00:44;8.23;;;3.70;;
71610;SDS011;59459;51.172;6.682;2023-05-10T15:03:09;9.80;;;3.80;;
71610;SDS011;59459;51.172;6.682;2023-05-10T15:05:37;9.70;;;4.43;;
71610;SDS011;59459;51.172;6.682;2023-05-10T15:08:03;10.00;;;4.22;;
71610;SDS011;59459;51.172;6.682;2023-05-10T15:10:29;10.90;;;4.18;;
71610;SDS011;59459;51.172;6.682;2023-05-10T15:12:55;9.70;;;3.93;;
71610;SDS011;59459;51.172;6.682;2023-05-10T15:15:20;9.00;;;4.22;;
71610;SDS011;59459;51.172;6.682;2023-05-10T15:17:48;7.87;;;3.77;;
71610;SDS011;59459;51.172;6.682;2023-05-10T15:20:29;10.63;;;4.38;;
71610;SDS011;59459;51.172;6.682;2023-05-10T15:22:58;10.27;;;3.73;;
71610;SDS011;59459;51.172;6.682;2023-05-10T15:25:25;9.30;;;4.30;;
71610;SDS011;59459;51.172;6.682;2023-05-10T15:27:52;10.55;;;4.35;;
71610;SDS011;59459;51.172;6.682;2023-05-10T15:30:20;11.57;;;4.67;;
71610;SDS011;59459;51.172;6.682;2023-05-10T15:32:49;11.35;;;4.47;;
71610;SDS011;59459;51.172;6.682;2023-05-10T15:35:17;11.90;;;3.87;;
71610;SDS011;59459;51.172;6.682;2023-05-10T15:37:46;11.27;;;4.88;;
71610;SDS011;59459;51.172;6.682;2023-05-10T15:40:12;8.93;;;4.30;;
71610;SDS011;59459;51.172;6.682;2023-05-10T15:42:40;9.23;;;4.03;;
71610;SDS011;59459;51.172;6.682;2023-05-10T15:45:08;9.95;;;4.00;;